Time;durP1;ratioP1;P1;durP2;ratioP2;P2;SDS_P1;SDS_P2;PMS_P1;PMS_P2;Temp;Humidity;BMP_temperature;BMP_pressure;BME280_temperature;BME280_humidity;BME280_pressure;Samples;Min_cycle;Max_cycle;Signal;HPM_P1;HPM_P2
2021/10/19 00:00:11;;;;;;;12.95;4.80;;;9.60;99.90;;;8.16;100.00;102223.75;4922007;28;20057;-84
2021/10/19 00:02:47;;;;;;;9.80;5.55;;;9.60;99.90;;;8.19;100.00;102218.44;4922864;28;20529;-84
2021/10/19 00:05:13;;;;;;;7.47;4.72;;;9.70;99.90;;;8.17;100.00;102214.09;4913688;28;20067;-85
2021/10/19 00:07:39;;;;;;;10.50;5.03;;;9.60;99.90;;;8.11;100.00;102206.31;4908002;28;20071;-84
2021/10/19 00:10:15;;;;;;;16.02;4.05;;;;;;;8.05;100.00;102201.13;4906542;28;20069;-84
2021/10/19 00:12:42;;;;;;;9.77;5.28;;;;;;;8.01;100.00;102195.94;4921988;28;20066;-84
2021/10/19 00:15:18;;;;;;;10.45;4.80;;;9.50;99.90;;;7.96;100.00;102197.72;4967979;28;20127;-84
2021/10/19 00:17:48;;;;;;;9.30;4.45;;;9.40;99.90;;;7.94;100.00;102198.63;4939528;28;20060;-84
2021/10/19 00:20:26;;;;;;;10.10;4.53;;;9.40;99.90;;;7.91;100.00;102199.56;4919293;28;20060;-84
2021/10/19 00:22:52;;;;;;;6.78;3.92;;;9.40;99.90;;;7.90;100.00;102205.66;4922871;28;20065;-84
2021/10/19 00:25:25;;;;;;;8.07;4.22;;;9.40;99.90;;;7.88;100.00;102211.81;4927918;28;21853;-84
2021/10/19 00:27:55;;;;;;;9.35;4.55;;;;;;;7.84;100.00;102205.78;4907470;28;20351;-84
2021/10/19 00:30:21;;;;;;;12.05;4.55;;;9.30;99.90;;;7.79;100.00;102210.19;4951277;28;20057;-84
2021/10/19 00:32:54;;;;;;;9.27;4.95;;;;;;;7.77;100.00;102212.81;4922000;28;20650;-84
2021/10/19 00:35:20;;;;;;;13.27;4.85;;;;;;;7.75;100.00;102211.09;4985606;28;20076;-85
2021/10/19 00:37:46;;;;;;;8.07;4.63;;;9.30;99.90;;;7.79;100.00;102229.38;4946153;28;20066;-84
2021/10/19 00:40:13;;;;;;;13.50;5.03;;;9.30;99.90;;;7.83;100.00;102243.34;4919053;28;20060;-84
2021/10/19 00:42:44;;;;;;;11.75;4.97;;;;;;;7.93;100.00;102238.88;4968216;28;20092;-84
2021/10/19 00:45:13;;;;;;;7.22;4.22;;;9.40;99.90;;;7.96;100.00;102230.97;4923979;28;20061;-84
2021/10/19 00:47:46;;;;;;;11.13;4.68;;;9.40;99.90;;;7.95;100.00;102216.13;4917169;28;20085;-84
2021/10/19 00:50:16;;;;;;;11.85;4.90;;;8.40;99.90;;;7.93;100.00;102223.16;4919870;28;20143;-84
2021/10/19 00:52:43;;;;;;;7.05;4.20;;;9.40;99.90;;;7.98;100.00;102202.97;4925292;28;20074;-84
2021/10/19 00:55:10;;;;;;;7.20;4.13;;;9.40;99.90;;;7.96;100.00;102189.84;4933674;28;20068;-83
2021/10/19 00:57:38;;;;;;;9.07;4.85;;;;;;;7.97;100.00;102167.16;5023428;28;20114;-84
2021/10/19 01:00:10;;;;;;;11.30;5.30;;;9.40;99.90;;;7.91;100.00;102152.34;4991325;28;21312;-84
2021/10/19 01:02:38;;;;;;;10.82;4.55;;;9.40;99.90;;;7.82;100.00;102139.34;4945706;28;20139;-84
2021/10/19 01:05:13;;;;;;;11.77;5.85;;;9.30;99.90;;;7.74;100.00;102128.94;4933574;28;20555;-84
2021/10/19 01:07:51;;;;;;;8.73;5.10;;;9.30;99.90;;;7.74;100.00;102130.72;4922654;28;20084;-84
2021/10/19 01:10:17;;;;;;;9.27;4.72;;;9.30;99.90;;;7.74;100.00;102131.56;4928428;28;20147;-83
2021/10/19 01:12:44;;;;;;;9.35;4.47;;;9.30;99.90;;;7.76;100.00;102140.28;4962727;28;20980;-83
2021/10/19 01:15:17;;;;;;;8.45;4.72;;;9.30;99.90;;;7.74;100.00;102128.09;4937702;28;20082;-83
2021/10/19 01:17:46;;;;;;;9.48;4.97;;;9.20;99.90;;;7.66;100.00;102124.69;4913537;28;20446;-83
2021/10/19 01:20:26;;;;;;;8.63;3.90;;;9.10;99.90;;;7.56;100.00;102122.19;4938201;28;20067;-84
2021/10/19 01:33:57;;;;;;;7.75;4.15;;;;;;;7.23;100.00;102160.09;5023338;22;20176;-84
2021/10/19 01:36:23;;;;;;;7.65;4.10;;;8.80;99.90;;;7.17;100.00;102161.03;4917998;28;20078;-84
2021/10/19 01:38:49;;;;;;;9.85;3.97;;;8.70;99.90;;;7.16;100.00;102166.28;4906536;28;20104;-84
2021/10/19 01:41:15;;;;;;;16.08;4.40;;;8.70;99.90;;;7.07;100.00;102155.88;4933271;28;20419;-83
2021/10/19 01:43:42;;;;;;;9.73;4.90;;;8.60;99.90;;;7.02;100.00;102169.03;4956069;28;22738;-84
2021/10/19 01:46:13;;;;;;;13.73;4.57;;;;;;;7.01;100.00;102164.66;4922442;28;20076;-85
2021/10/19 01:48:41;;;;;;;14.15;4.80;;;;;;;7.15;100.00;102182.88;4903612;28;20093;-85
2021/10/19 01:51:07;;;;;;;9.45;4.97;;;8.70;99.90;;;7.18;100.00;102191.56;4942902;28;20060;-86
2021/10/19 01:53:33;;;;;;;8.05;5.20;;;8.80;99.90;;;7.24;100.00;102200.28;4915176;28;20111;-84
2021/10/19 01:56:06;;;;;;;13.02;5.10;;;8.80;99.90;;;7.36;100.00;102211.50;4935308;28;20173;-84
2021/10/19 01:58:32;;;;;;;9.98;5.88;;;;;;;7.46;100.00;102212.28;4939402;28;20559;-84
2021/10/19 02:00:58;;;;;;;12.77;6.55;;;9.00;99.90;;;7.53;100.00;102205.22;4979335;28;20242;-84
2021/10/19 02:03:24;;;;;;;14.10;5.80;;;9.00;99.90;;;7.58;100.00;102185.06;4919042;28;20668;-83
2021/10/19 02:05:53;;;;;;;14.23;6.88;;;;;;;7.67;100.00;102181.50;4910082;28;20154;-84
2021/10/19 02:08:23;;;;;;;12.07;6.15;;;;;;;7.60;100.00;102152.72;4931201;28;20075;-84
2021/10/19 02:10:49;;;;;;;18.30;6.43;;;9.10;99.90;;;7.52;100.00;102130.09;4930560;28;20147;-84
2021/10/19 02:13:16;;;;;;;15.13;6.45;;;9.00;99.90;;;7.50;100.00;102124.88;4951682;28;20058;-84
2021/10/19 02:15:51;;;;;;;9.85;5.53;;;9.00;99.90;;;7.54;100.00;102121.34;4953614;28;20593;-84
2021/10/19 02:18:17;;;;;;;9.73;6.13;;;9.00;99.90;;;7.50;100.00;102119.63;4924206;28;20064;-84
2021/10/19 02:20:43;;;;;;;12.95;6.05;;;9.00;99.90;;;7.52;100.00;102110.00;4936357;28;20090;-83
2021/10/19 02:23:10;;;;;;;12.77;5.75;;;9.00;99.90;;;7.51;100.00;102103.00;4949088;28;20112;-83
2021/10/19 02:25:45;;;;;;;16.60;6.47;;;9.00;99.90;;;7.59;100.00;102114.28;4922053;28;20417;-85
2021/10/19 02:28:11;;;;;;;8.52;5.30;;;9.10;99.90;;;7.58;100.00;102094.19;4920861;28;20066;-84
2021/10/19 02:30:37;;;;;;;17.88;6.93;;;9.00;99.90;;;7.60;100.00;102078.44;4891834;28;20056;-83
2021/10/19 02:33:09;;;;;;;13.82;5.28;;;9.10;99.90;;;7.67;100.00;102076.63;4957079;28;20094;-84
2021/10/19 02:35:35;;;;;;;12.75;5.82;;;;;;;7.61;100.00;102056.59;4938951;28;20052;-83
2021/10/19 02:38:01;;;;;;;9.30;5.68;;;9.10;99.90;;;7.56;100.00;102051.41;4897380;28;20123;-83
2021/10/19 02:40:27;;;;;;;9.40;5.88;;;9.00;99.90;;;7.55;100.00;102047.03;4934970;28;20084;-83
2021/10/19 02:42:53;;;;;;;10.98;5.65;;;9.00;99.90;;;7.50;100.00;102048.00;4921190;28;20503;-83
2021/10/19 02:45:25;;;;;;;11.68;5.53;;;9.00;99.90;;;7.48;100.00;102044.53;4903179;28;20154;-84
2021/10/19 02:47:51;;;;;;;14.57;6.43;;;9.00;99.90;;;7.43;100.00;102041.97;4933686;28;20065;-84
2021/10/19 02:50:17;;;;;;;17.42;6.47;;;8.20;99.90;;;7.37;100.00;102042.91;4935354;28;20470;-84
2021/10/19 02:52:43;;;;;;;10.65;5.78;;;8.90;99.90;;;7.37;100.00;102052.53;4937647;28;20182;-83
2021/10/19 02:55:20;;;;;;;11.00;5.95;;;8.90;99.90;;;7.35;100.00;102047.28;4896668;28;20132;-84
2021/10/19 02:57:47;;;;;;;10.15;5.97;;;8.80;99.90;;;7.36;100.00;102050.78;4905647;28;20511;-84
2021/10/19 03:00:17;;;;;;;11.73;5.97;;;8.90;99.90;;;7.34;100.00;102047.31;4900301;28;20079;-83
2021/10/19 03:02:46;;;;;;;12.38;6.70;;;;;;;7.34;100.00;102052.53;4869286;28;20066;-84
2021/10/19 03:05:12;;;;;;;11.05;6.47;;;8.90;99.90;;;7.33;100.00;102051.69;4942090;28;20078;-84
2021/10/19 03:07:38;;;;;;;12.80;6.50;;;8.90;99.90;;;7.50;100.00;102068.97;4924587;28;20059;-83
2021/10/19 03:10:14;;;;;;;14.57;6.57;;;8.90;99.90;;;7.45;100.00;102045.44;4900504;28;20154;-84
2021/10/19 03:12:41;;;;;;;12.27;6.50;;;8.90;99.90;;;7.49;100.00;102054.13;4962986;28;20076;-84
2021/10/19 03:15:07;;;;;;;12.60;6.63;;;;;;;7.44;100.00;102042.84;4947729;28;20089;-84
2021/10/19 03:17:39;;;;;;;11.82;6.32;;;8.90;99.90;;;7.35;100.00;102036.81;4900439;28;20228;-84
2021/10/19 03:20:08;;;;;;;18.55;6.47;;;8.80;99.90;;;7.32;100.00;102049.06;4917434;28;20375;-85
2021/10/19 03:22:34;;;;;;;13.93;6.30;;;8.80;99.90;;;7.27;100.00;102040.41;4919756;28;20075;-84
2021/10/19 03:25:00;;;;;;;11.57;6.03;;;8.80;99.90;;;7.25;100.00;102044.81;4924818;28;20072;-83
2021/10/19 03:27:35;;;;;;;10.05;5.82;;;8.80;99.90;;;7.22;100.00;102044.84;4905766;28;24492;-83
2021/10/19 03:30:01;;;;;;;14.63;6.00;;;8.80;99.90;;;7.17;100.00;102047.50;4888499;28;20534;-83
2021/10/19 03:32:27;;;;;;;10.52;5.60;;;8.70;99.90;;;7.11;100.00;102048.44;4910848;28;20072;-84
2021/10/19 03:34:53;;;;;;;15.50;6.13;;;8.70;99.90;;;7.07;100.00;102049.38;4892407;28;20062;-83
2021/10/19 03:37:26;;;;;;;9.85;6.05;;;;;;;7.04;100.00;102041.56;4881371;28;20066;-85
2021/10/19 03:39:52;;;;;;;13.85;6.30;;;8.70;99.90;;;7.03;100.00;102067.75;4902797;28;20099;-83
2021/10/19 03:42:18;;;;;;;15.02;6.18;;;8.60;99.90;;;6.99;100.00;102066.91;4915249;28;20524;-83
2021/10/19 03:44:44;;;;;;;16.38;6.18;;;8.60;99.90;;;6.96;100.00;102064.34;4947472;28;20062;-83
2021/10/19 03:47:13;;;;;;;11.98;6.53;;;;;;;6.97;100.00;102064.28;4916496;28;20154;-83
2021/10/19 03:49:42;;;;;;;11.13;6.10;;;;;;;6.97;100.00;102071.28;4906858;28;20056;-83
2021/10/19 03:52:09;;;;;;;19.50;8.23;;;;;;;6.98;100.00;102070.41;4933788;28;20064;-83
2021/10/19 03:54:36;;;;;;;22.70;8.77;;;;;;;7.01;100.00;102067.75;4879977;28;20495;-83
2021/10/19 03:57:05;;;;;;;21.60;8.63;;;8.60;99.90;;;7.10;100.00;102067.66;4938860;28;20064;-83
2021/10/19 03:59:34;;;;;;;21.13;7.85;;;8.70;99.90;;;7.13;100.00;102065.03;4912728;28;21068;-84
2021/10/19 04:02:01;;;;;;;18.63;7.50;;;8.70;99.90;;;7.20;100.00;102055.34;4943295;28;20226;-84
2021/10/19 04:04:27;;;;;;;14.73;7.47;;;;;;;7.23;100.00;102041.31;4901892;28;20127;-83
2021/10/19 04:06:53;;;;;;;20.33;7.72;;;8.70;99.90;;;7.21;100.00;102027.38;4908220;28;20068;-83
2021/10/19 04:09:24;;;;;;;20.40;8.35;;;8.80;99.90;;;7.26;100.00;102009.88;4898985;28;20366;-85
2021/10/19 04:11:50;;;;;;;17.65;8.15;;;8.70;99.90;;;7.22;100.00;102005.56;4892467;28;20751;-84
2021/10/19 04:14:16;;;;;;;14.05;7.63;;;8.70;99.90;;;7.24;100.00;101993.31;4930374;28;20076;-83
2021/10/19 04:16:42;;;;;;;15.30;8.07;;;8.80;99.90;;;7.25;100.00;101990.66;4908433;28;20080;-83
2021/10/19 04:19:08;;;;;;;15.10;8.02;;;8.70;99.90;;;7.27;100.00;101982.78;4897152;28;20202;-83
2021/10/19 04:21:45;;;;;;;15.35;7.90;;;8.70;99.90;;;7.23;100.00;101971.44;4905835;28;20073;-83
2021/10/19 04:24:12;;;;;;;15.23;8.02;;;8.70;99.90;;;7.23;100.00;101970.59;4891559;28;20072;-83
2021/10/19 04:26:43;;;;;;;17.13;7.60;;;8.80;99.90;;;7.23;100.00;101979.31;4883427;28;20065;-83
2021/10/19 04:29:11;;;;;;;17.60;7.43;;;;;;;7.26;100.00;101975.81;4873488;28;20140;-83
2021/10/19 04:31:38;;;;;;;19.63;7.88;;;8.70;99.90;;;7.25;100.00;101968.81;4915217;28;20680;-83
2021/10/19 04:34:13;;;;;;;20.58;8.30;;;8.70;99.90;;;7.23;100.00;101976.69;4904813;28;20084;-83
2021/10/19 04:36:39;;;;;;;18.55;7.95;;;8.70;99.90;;;7.24;100.00;101978.44;4896451;28;20064;-83
2021/10/19 04:39:05;;;;;;;17.10;7.82;;;8.70;99.90;;;7.18;100.00;101974.13;4917805;28;20070;-83
2021/10/19 04:41:32;;;;;;;18.48;7.82;;;8.70;99.90;;;7.21;100.00;101982.84;4897548;28;20513;-83
2021/10/19 04:44:07;;;;;;;23.30;8.05;;;8.70;99.90;;;7.28;100.00;101981.88;4911363;28;20077;-83
2021/10/19 04:46:33;;;;;;;14.52;8.55;;;8.70;99.90;;;7.24;100.00;101961.88;4913474;28;20068;-83
2021/10/19 04:48:59;;;;;;;25.42;9.30;;;8.70;99.90;;;7.23;100.00;101947.88;4933439;28;20808;-83
2021/10/19 04:51:25;;;;;;;19.63;8.07;;;8.70;99.90;;;7.27;100.00;101946.09;4922706;28;20057;-83
2021/10/19 04:53:56;;;;;;;19.08;9.20;;;9.70;99.90;;;7.29;100.00;101942.56;4916114;28;20090;-83
2021/10/19 04:56:22;;;;;;;20.27;9.73;;;8.80;99.90;;;7.30;100.00;101935.56;4933170;28;20071;-83
2021/10/19 04:58:48;;;;;;;22.20;8.95;;;9.90;99.90;;;7.30;100.00;101938.19;4976026;28;20127;-84
2021/10/19 05:01:14;;;;;;;18.90;9.05;;;8.70;99.90;;;7.26;100.00;101923.41;4904988;28;20139;-83
2021/10/19 05:03:42;;;;;;;17.77;8.60;;;8.80;99.90;;;7.25;100.00;101933.00;4916897;28;20083;-83
2021/10/19 05:06:11;;;;;;;16.92;9.57;;;8.70;99.90;;;7.25;100.00;101929.53;4865617;28;20531;-84
2021/10/19 05:08:37;;;;;;;22.20;9.15;;;;;;;7.21;100.00;101922.59;4903964;28;20541;-83
2021/10/19 05:11:04;;;;;;;19.98;9.65;;;;;;;7.22;100.00;101927.81;4919663;28;20065;-83
2021/10/19 05:13:30;;;;;;;15.55;8.73;;;9.50;99.90;;;7.22;100.00;101926.97;4923920;28;20077;-83
2021/10/19 05:15:56;;;;;;;22.02;9.25;;;;;;;7.20;100.00;101932.22;4893687;28;20065;-83
2021/10/19 05:18:33;;;;;;;18.75;9.35;;;8.80;99.90;;;7.15;100.00;101936.66;4898603;28;20059;-83
2021/10/19 05:21:00;;;;;;;14.45;7.75;;;8.70;99.90;;;7.11;100.00;101943.69;4879998;28;20069;-83
2021/10/19 05:23:38;;;;;;;21.52;8.23;;;8.70;99.90;;;7.09;100.00;101955.94;4906223;28;20074;-83
2021/10/19 05:26:03;;;;;;;20.42;8.73;;;8.70;99.90;;;7.04;100.00;101970.84;4926721;28;20129;-83
2021/10/19 05:28:38;;;;;;;25.13;9.00;;;8.70;99.90;;;7.05;100.00;101966.47;4889059;28;20169;-83
2021/10/19 05:34:18;;;;;;;22.30;10.13;;;8.60;99.90;;;7.02;100.00;101943.81;5049559;27;20681;-83
2021/10/19 05:36:44;;;;;;;22.05;10.07;;;8.60;99.90;;;7.04;100.00;101952.50;4986795;28;20063;-84
2021/10/19 05:39:18;;;;;;;21.27;11.30;;;8.60;99.90;;;7.02;100.00;101942.91;4995828;28;20099;-83
2021/10/19 05:41:45;;;;;;;20.73;10.63;;;8.60;99.90;;;7.00;100.00;101950.81;4944018;28;20591;-83
2021/10/19 05:44:11;;;;;;;17.27;9.10;;;8.60;99.90;;;6.98;100.00;101960.44;4920477;28;20100;-83
2021/10/19 05:46:37;;;;;;;18.60;8.55;;;8.60;99.90;;;6.97;100.00;101940.34;4949573;28;20143;-83
2021/10/19 05:49:10;;;;;;;19.67;9.93;;;8.60;99.90;;;6.99;100.00;101933.34;4949959;28;20513;-83
2021/10/19 05:51:36;;;;;;;15.93;9.35;;;8.50;99.90;;;7.05;100.00;101912.31;4940880;28;20114;-83
2021/10/19 05:54:02;;;;;;;21.05;9.68;;;;;;;6.99;100.00;101917.63;4965899;28;20063;-83
2021/10/19 05:56:28;;;;;;;19.42;9.32;;;8.60;99.90;;;6.96;100.00;101922.91;4978859;28;20206;-83
2021/10/19 05:59:05;;;;;;;19.95;10.15;;;8.50;99.90;;;6.93;100.00;101900.28;4979395;28;20062;-83
2021/10/19 06:01:31;;;;;;;19.60;9.77;;;8.50;99.90;;;6.96;100.00;101907.22;4974212;28;20067;-83
2021/10/19 06:03:57;;;;;;;20.67;10.15;;;8.50;99.90;;;6.96;100.00;101902.84;4940844;28;24517;-83
2021/10/19 06:06:30;;;;;;;21.73;10.95;;;8.50;99.90;;;6.98;100.00;101897.59;4952110;28;20545;-84
2021/10/19 06:08:56;;;;;;;22.55;10.20;;;8.50;99.90;;;7.12;100.00;101900.88;4998699;28;20081;-84
2021/10/19 06:11:22;;;;;;;23.67;10.70;;;;;;;7.09;100.00;101881.72;4961602;28;20090;-83
2021/10/19 06:13:48;;;;;;;21.13;10.15;;;8.60;99.90;;;7.20;100.00;101882.44;4987266;28;20485;-83
2021/10/19 06:16:14;;;;;;;25.02;11.05;;;8.70;99.90;;;7.19;100.00;101868.47;4942194;28;20064;-83
2021/10/19 06:18:48;;;;;;;23.55;11.52;;;8.70;99.90;;;7.18;100.00;101858.88;4913551;28;20106;-84
2021/10/19 06:21:15;;;;;;;23.45;12.07;;;8.70;99.90;;;7.25;100.00;101862.28;4960917;28;20079;-83
2021/10/19 06:23:41;;;;;;;22.17;11.15;;;8.70;99.90;;;7.28;100.00;101866.59;4945745;28;20521;-83
2021/10/19 06:26:14;;;;;;;25.33;11.32;;;8.80;99.90;;;7.34;100.00;101863.88;4946258;28;20149;-83
2021/10/19 06:28:40;;;;;;;28.50;11.43;;;8.80;99.90;;;7.36;100.00;101849.91;4959240;28;20140;-83
2021/10/19 06:31:07;;;;;;;24.92;10.40;;;;;;;7.33;100.00;101859.56;4967867;28;20148;-83
2021/10/19 06:33:33;;;;;;;26.17;11.75;;;8.80;99.90;;;7.31;100.00;101872.66;4942384;28;20106;-83
2021/10/19 06:36:08;;;;;;;21.83;10.82;;;8.90;99.90;;;7.39;100.00;101880.44;4966617;28;20065;-83
2021/10/19 06:38:34;;;;;;;19.45;10.90;;;8.90;99.90;;;7.37;100.00;101883.06;4946547;28;21468;-83
2021/10/19 06:41:00;;;;;;;25.02;10.77;;;8.90;99.90;;;7.33;100.00;101889.22;4957169;28;20056;-83
2021/10/19 06:43:31;;;;;;;25.88;10.05;;;8.90;99.90;;;7.35;100.00;101883.97;5011655;28;20072;-83
2021/10/19 06:45:58;;;;;;;25.38;10.88;;;;;;;7.38;100.00;101889.16;4896320;28;20075;-83
2021/10/19 06:48:24;;;;;;;21.95;10.85;;;;;;;7.44;100.00;101890.84;4914603;28;20070;-83
2021/10/19 06:50:50;;;;;;;23.20;10.77;;;9.00;99.90;;;7.46;100.00;101884.69;4910931;28;20129;-83
2021/10/19 06:53:16;;;;;;;24.95;11.27;;;9.00;99.90;;;7.50;100.00;101896.84;4939421;28;20081;-83
2021/10/19 06:55:44;;;;;;;22.77;10.30;;;9.10;99.90;;;7.56;100.00;101896.75;4938286;28;20081;-83
2021/10/19 06:58:13;;;;;;;22.05;11.00;;;;;;;7.69;100.00;101910.53;4951892;28;20061;-83
2021/10/19 07:00:39;;;;;;;19.23;10.75;;;9.30;99.90;;;7.74;100.00;101899.97;4982935;28;20072;-83
2021/10/19 07:03:05;;;;;;;23.30;10.45;;;;;;;7.80;100.00;101897.25;4968728;28;20126;-83
2021/10/19 07:05:32;;;;;;;23.02;10.82;;;9.40;99.90;;;7.93;100.00;101888.28;4946880;28;20070;-83
2021/10/19 07:08:07;;;;;;;20.40;11.48;;;9.50;99.90;;;7.99;100.00;101879.44;4929040;28;20553;-83
2021/10/19 07:10:33;;;;;;;22.30;10.77;;;9.60;99.90;;;8.19;100.00;101895.72;4956610;28;20481;-83
2021/10/19 07:12:59;;;;;;;23.92;10.85;;;9.90;99.90;;;8.69;100.00;101937.69;4969838;28;20072;-83
2021/10/19 07:15:34;;;;;;;26.90;11.02;;;10.30;99.90;;;9.14;100.00;101937.66;4972785;28;20055;-83
2021/10/19 07:18:05;;;;;;;21.77;10.52;;;10.50;99.90;;;8.81;100.00;101866.53;4935745;28;20108;-83
2021/10/19 07:20:37;;;;;;;22.25;9.65;;;10.50;99.90;;;8.99;100.00;101875.78;4930772;28;20127;-83
2021/10/19 07:23:03;;;;;;;25.73;9.45;;;10.40;99.90;;;9.06;100.00;101876.50;4927654;28;20075;-83
2021/10/19 07:25:30;;;;;;;18.33;10.07;;;10.60;99.90;;;9.41;100.00;101903.75;4950252;28;20060;-84
2021/10/19 07:27:57;;;;;;;19.65;10.75;;;11.20;99.90;;;10.23;100.00;101969.28;4934440;28;20553;-83
2021/10/19 07:30:29;;;;;;;19.95;9.80;;;12.00;99.90;;;11.16;100.00;102009.84;4972952;28;20159;-83
2021/10/19 07:32:55;;;;;;;15.95;8.50;;;12.40;99.90;;;11.21;100.00;102007.97;4938486;28;20083;-83
2021/10/19 07:35:22;;;;;;;15.50;7.70;;;12.60;99.90;;;10.80;98.92;101952.03;4922110;28;20033;-84
2021/10/19 07:37:49;;;;;;;17.83;8.25;;;12.20;99.90;;;10.20;100.00;101897.44;4973116;28;20033;-83
2021/10/19 07:40:22;;;;;;;15.15;8.50;;;11.80;99.90;;;9.92;100.00;101890.25;4963961;28;20413;-83
2021/10/19 07:42:49;;;;;;;18.50;8.88;;;11.50;99.90;;;9.93;100.00;101914.81;4948730;28;20175;-84
2021/10/19 07:45:16;;;;;;;17.08;9.23;;;11.50;99.90;;;9.90;100.00;101913.13;4960295;28;20055;-83
2021/10/19 07:47:47;;;;;;;18.63;9.50;;;11.30;99.90;;;9.74;100.00;101901.22;4918416;28;20094;-83
2021/10/19 07:50:17;;;;;;;17.83;9.48;;;11.20;99.90;;;9.59;100.00;101881.41;4940366;28;20078;-83
2021/10/19 07:52:44;;;;;;;19.92;9.77;;;11.10;99.90;;;9.38;100.00;101856.53;4971706;28;20497;-83
2021/10/19 07:55:13;;;;;;;19.88;9.82;;;10.80;99.90;;;9.20;100.00;101845.53;4929752;28;20063;-83
2021/10/19 07:57:57;;;;;;;20.95;9.70;;;10.80;99.90;;;9.23;100.00;101868.25;4898865;28;20030;-84
2021/10/19 08:00:27;;;;;;;17.83;10.02;;;10.90;99.90;;;9.33;100.00;101903.06;4947062;28;20543;-83
2021/10/19 08:02:54;;;;;;;18.63;9.80;;;10.80;99.90;;;9.30;100.00;101890.00;4996682;28;20151;-83
2021/10/19 08:05:29;;;;;;;20.77;10.25;;;10.80;99.90;;;9.40;100.00;101912.56;4955013;28;20062;-83
2021/10/19 08:08:19;;;;;;;24.50;9.98;;;10.70;99.90;;;9.34;100.00;101886.41;4942833;28;20430;-83
2021/10/19 08:11:08;;;;;;;16.77;9.13;;;10.70;99.90;;;9.34;100.00;102259.69;4945856;28;20556;-83
2021/10/19 08:14:02;;;;;;;21.42;10.27;;;10.60;99.90;;;9.17;100.00;102208.25;4950732;28;20118;-83
2021/10/19 08:16:45;;;;;;;17.45;9.73;;;10.50;99.90;;;9.15;100.00;102254.72;4968729;28;20058;-82
2021/10/19 08:19:46;;;;;;;18.75;10.00;;;10.50;99.90;;;9.16;100.00;102113.69;4958605;28;20075;-82
2021/10/19 08:22:37;;;;;;;20.10;10.20;;;10.50;99.90;;;9.21;100.00;102073.28;4969259;28;20083;-83
2021/10/19 08:25:44;;;;;;;17.70;9.88;;;10.50;99.90;;;9.19;100.00;102017.25;4938198;28;20072;-82
2021/10/19 08:28:52;;;;;;;21.92;10.50;;;10.50;99.90;;;9.16;100.00;101963.91;4934363;28;20076;-83
2021/10/19 08:31:34;;;;;;;20.25;10.35;;;10.50;99.90;;;9.13;100.00;101945.56;4949253;28;20512;-82
2021/10/19 08:34:37;;;;;;;21.95;10.60;;;10.50;99.90;;;9.14;100.00;101949.94;4944227;28;20080;-82
2021/10/19 08:37:45;;;;;;;20.38;10.60;;;10.50;99.90;;;9.10;100.00;101930.72;4953365;28;20155;-83
2021/10/19 08:41:08;;;;;;;22.35;10.55;;;10.50;99.90;;;9.14;100.00;101927.13;4938696;28;20079;-82
2021/10/19 08:44:31;;;;;;;;;;;;;;;;;;;;;
2021/10/19 08:47:17;;;;;;;22.98;11.38;;;10.50;99.90;;;9.20;100.00;101915.59;4949870;28;21377;-83
2021/10/19 08:52:54;;;;;;;20.83;10.73;;;10.60;99.90;;;9.31;100.00;101916.25;4938699;28;20072;-82
2021/10/19 08:55:49;;;;;;;25.45;11.82;;;10.70;99.90;;;9.33;100.00;101908.31;4946984;28;20633;-82
2021/10/19 08:58:39;;;;;;;24.73;11.60;;;10.70;99.90;;;9.32;100.00;101915.34;4951940;28;20225;-83
2021/10/19 09:01:52;;;;;;;19.55;11.27;;;10.70;99.90;;;9.35;100.00;101904.78;4957818;28;20440;-82
2021/10/19 09:04:42;;;;;;;20.80;11.13;;;10.70;99.90;;;9.42;100.00;101900.25;4953781;28;20060;-83
2021/10/19 09:08:08;;;;;;;19.58;11.38;;;10.80;99.90;;;9.52;100.00;101978.00;4975398;28;20055;-82
2021/10/19 09:11:58;;;;;;;27.95;12.18;;;10.90;99.90;;;9.67;100.00;101937.34;4926667;28;20052;-82
2021/10/19 09:15:48;;;;;;;24.90;12.05;;;11.10;99.90;;;9.86;100.00;101908.81;4976143;28;20075;-82
2021/10/19 09:19:20;;;;;;;24.15;11.75;;;11.20;99.90;;;9.88;100.00;101898.28;4974526;28;20071;-83
2021/10/19 09:22:11;;;;;;;24.83;11.77;;;11.20;99.90;;;9.93;100.00;101891.97;4975345;28;20044;-82
2021/10/19 09:24:51;;;;;;;27.13;12.45;;;11.30;99.90;;;9.93;100.00;101884.09;4982927;28;20086;-82
2021/10/19 09:27:54;;;;;;;23.80;12.07;;;11.30;99.90;;;9.99;100.00;101886.56;4942672;28;20581;-81
2021/10/19 09:31:27;;;;;;;23.48;12.98;;;11.40;99.90;;;10.06;100.00;101888.16;4956217;28;20086;-81
2021/10/19 09:34:54;;;;;;;24.00;11.68;;;11.40;99.90;;;10.21;100.00;101899.16;4955109;28;20080;-81
2021/10/19 09:37:51;;;;;;;22.85;12.00;;;11.60;99.90;;;10.22;100.00;101893.88;4932597;28;20064;-81
2021/10/19 09:41:35;;;;;;;23.38;12.30;;;11.60;99.90;;;10.36;100.00;101900.56;4984901;28;20117;-82
2021/10/19 09:44:41;;;;;;;26.90;12.75;;;;;;;10.46;100.00;101886.25;4978951;28;20100;-82
2021/10/19 09:47:43;;;;;;;22.40;12.18;;;11.80;99.90;;;10.40;100.00;101870.63;4952158;28;20626;-82
2021/10/19 09:51:18;;;;;;;23.90;11.82;;;11.70;99.90;;;10.27;100.00;101865.66;4939412;28;20467;-82
2021/10/19 09:54:36;;;;;;;24.77;11.75;;;11.50;99.90;;;10.16;100.00;101861.59;4964376;28;20075;-81
2021/10/19 09:58:06;;;;;;;20.50;11.93;;;11.40;99.90;;;10.06;100.00;101843.41;4982466;28;20590;-82
2021/10/19 10:01:35;;;;;;;22.88;12.13;;;11.40;99.90;;;10.21;100.00;101876.34;4963421;28;20100;-82
2021/10/19 10:04:47;;;;;;;26.38;11.95;;;11.50;99.90;;;10.21;100.00;101860.53;4936841;28;20064;-82
2021/10/19 10:08:36;;;;;;;27.02;12.48;;;11.60;99.90;;;10.37;100.00;101873.34;4961759;28;20080;-82
2021/10/19 10:11:58;;;;;;;27.48;12.50;;;11.70;99.90;;;10.46;100.00;101855.50;4965328;28;20073;-81
2021/10/19 10:15:15;;;;;;;24.33;11.85;;;11.90;99.90;;;10.56;100.00;101835.06;4975341;28;20067;-81
2021/10/19 10:19:15;;;;;;;25.65;12.32;;;12.00;99.90;;;10.65;100.00;101837.41;4958333;28;20071;-81
2021/10/19 10:23:19;;;;;;;21.45;12.40;;;12.10;99.90;;;10.77;100.00;101827.41;4973299;28;20059;-82
2021/10/19 10:27:26;;;;;;;24.52;12.05;;;12.20;99.90;;;10.90;100.00;101825.28;4970963;28;20450;-82
2021/10/19 10:31:13;;;;;;;24.27;11.77;;;12.20;99.90;;;10.95;100.00;101823.34;4970456;28;20074;-81
2021/10/19 10:35:04;;;;;;;26.63;13.80;;;12.30;99.90;;;11.00;100.00;101824.09;4990684;28;20185;-82
2021/10/19 10:38:03;;;;;;;27.63;12.52;;;12.30;99.90;;;11.04;100.00;101821.31;4996845;28;20229;-81
2021/10/19 10:41:33;;;;;;;25.25;12.98;;;12.30;99.90;;;11.06;100.00;101819.50;4980488;28;20044;-81
2021/10/19 10:45:18;;;;;;;28.63;12.77;;;12.40;99.90;;;11.15;100.00;101822.75;4991069;28;20032;-81
2021/10/19 10:49:18;;;;;;;24.48;11.70;;;12.50;99.90;;;11.36;100.00;101853.72;4986261;28;20074;-82
2021/10/19 10:53:08;;;;;;;28.70;12.35;;;12.70;99.90;;;11.51;100.00;101841.78;4963090;28;20068;-81
2021/10/19 10:55:49;;;;;;;25.25;13.05;;;12.90;99.90;;;11.60;100.00;101841.50;4987518;28;20426;-81
2021/10/19 10:59:21;;;;;;;21.15;11.45;;;13.00;99.90;;;11.65;100.00;101825.53;4960842;28;20031;-81
2021/10/19 11:02:52;;;;;;;22.42;12.27;;;12.90;99.90;;;11.69;100.00;101857.03;4958669;28;20062;-81
2021/10/19 11:06:04;;;;;;;20.88;11.57;;;12.90;99.90;;;11.61;100.00;101819.47;4962434;28;20477;-81
2021/10/19 11:09:08;;;;;;;24.70;11.95;;;12.90;99.90;;;11.62;100.00;101815.94;4973534;28;20593;-81
2021/10/19 11:11:38;;;;;;;24.42;12.43;;;12.90;99.90;;;11.68;100.00;101813.09;4997687;28;20045;-82
2021/10/19 11:14:26;;;;;;;23.63;12.65;;;13.00;99.90;;;11.76;100.00;101814.59;4970090;28;20060;-81
2021/10/19 11:16:57;;;;;;;25.38;12.63;;;13.00;99.90;;;11.76;100.00;101826.00;4960781;28;20130;-81
2021/10/19 11:19:33;;;;;;;21.85;11.80;;;13.00;99.90;;;11.77;100.00;101808.38;4987998;28;20036;-81
2021/10/19 11:22:08;;;;;;;21.08;12.32;;;13.10;99.90;;;11.77;100.00;101768.81;4975250;28;20018;-81
2021/10/19 11:24:38;;;;;;;22.52;11.73;;;13.10;99.90;;;11.83;100.00;101756.25;4971584;28;20077;-82